YRP weather

Ottawa / Carp Airport
Ottawa, Ontario, Canada

Public forecast

Using degrees Celsius for public forecast. Weather courtesy of forecast.io.

Closest aviation weather report (METAR) to Ottawa / Carp Airport

Closest report is Ottawa Macdonald-Cartier International Airport, 14.9 nm (27.6 km) E. Retrieved 2020/06/06 14:00 UTC (34 minutes ago):

CYOW 061400Z 27011KT 15SM FEW030 FEW120 22/13 A2978 RMK CU1AC1 CU TR AC TR SLP086 DENSITY ALT 1400FT

Closest aviation forecast (TAF) to Ottawa / Carp Airport

Closest forecast is Ottawa Macdonald-Cartier International Airport, 14.9 nm (27.6 km) E. Retrieved 2020/06/06 12:42 UTC (2 hours ago):

TAF CYOW 061138Z 0612/0712 25005KT P6SM FEW120 FM061500 32007KT P6SM BKN070 FM061800 32010G20KT P6SM -SHRA OVC050 PROB30 0620/0623 VRB15G25KT 2SM TSRA BR BKN020 OVC050CB FM062300 34010G20KT P6SM BKN050 FM070500 35010KT P6SM FEW050 RMK NXT FCST BY 061500Z